Stolt Ami — 3EAZ5 — position and weather

sailwx.info

Track history (hours):
 
Tides and Currents Weather Stations Pressure Air Temp Water Temp Dewpoint Dewpoint Depression Visibility Wind Speed Wind Dir Waves Ship Positions

Stolt Ami

Last reported at 2016-Jul-08 04:32 UTC. Time now 2016-Jul-26 14:14 UTC.
Position N 37°19' E 024°09'.
Warning: this ship's position is 18 days out of date.

Length 143 m; draft 9.1 m.

Type: Ship (hazmat cat B). MMSI: 371392514.

Date/timePositionNaut miles runAvg speedWind from/ knotsBaromVisibWave heightAir tempDewpointWater temp
2016-Jul-08 04:32N 37°19' E 024°09'1312.4
2016-Jul-08 03:31N 37°10' E 023°58'1212.6
2016-Jul-08 02:33N 37°01' E 023°48'1312.8
2016-Jul-08 01:33N 36°51' E 023°38'  
2016-Jul-05 19:22N 43°55' E 013°44'1212.7
2016-Jul-05 18:27N 44°02' E 013°31'1213.0
2016-Jul-05 17:33N 44°09' E 013°18'1212.2
2016-Jul-05 16:34N 44°19' E 013°09'1312.8
2016-Jul-05 15:34N 44°31' E 013°04'1312.9
2016-Jul-05 14:34N 44°44' E 012°58'1313.2
2016-Jul-05 13:34N 44°56' E 012°50'1413.5
2016-Jul-05 12:33N 45°07' E 012°40'1212.0
2016-Jul-05 11:33N 45°16' E 012°29'3 3.3
2016-Jul-05 10:31N 45°19' E 012°27'0 0.0
2016-Jul-05 09:31N 45°19' E 012°27'0 0.0
2016-Jul-05 08:31N 45°19' E 012°27'0 0.0
2016-Jul-05 07:32N 45°19' E 012°27'0 0.0
2016-Jul-05 06:31N 45°19' E 012°27'0 0.0
2016-Jul-05 04:31N 45°19' E 012°27'0 0.0
2016-Jul-05 03:31N 45°19' E 012°27'0 0.0
2016-Jul-05 02:31N 45°19' E 012°27'0 0.0
2016-Jul-05 01:31N 45°19' E 012°27'0 0.0
2016-Jul-05 00:31N 45°19' E 012°27'0 0.0
2016-Jul-04 23:31N 45°19' E 012°27'0 0.0
2016-Jul-04 22:31N 45°19' E 012°27'0 0.1
2016-Jul-04 21:31N 45°19' E 012°27'0 0.0
2016-Jul-04 20:31N 45°19' E 012°27'0 0.0
2016-Jul-04 19:31N 45°19' E 012°27'0 0.0
2016-Jul-04 18:31N 45°19' E 012°27'0 0.0
2016-Jul-04 17:31N 45°19' E 012°27'1 1.2
2016-Jul-04 16:34N 45°19' E 012°25'8 8.0
2016-Jul-04 15:33N 45°23' E 012°16'4 3.7
2016-Jul-04 14:31N 45°26' E 012°13'0 0.0
2016-Jul-04 13:31N 45°26' E 012°13'0 0.0
2016-Jul-04 12:31N 45°26' E 012°13'0 0.0
2016-Jul-04 11:31N 45°26' E 012°13'0 0.0
2016-Jul-04 10:31N 45°26' E 012°13'0 0.0
2016-Jul-04 09:31N 45°26' E 012°13'0 0.0
2016-Jul-04 08:31N 45°26' E 012°13'0 0.0
2016-Jul-04 07:31N 45°26' E 012°13'0 0.0
2016-Jul-04 06:31N 45°26' E 012°13'0 0.0
2016-Jul-04 05:31N 45°26' E 012°13'0 0.0
2016-Jul-04 04:31N 45°26' E 012°13'0 0.0
2016-Jul-04 03:31N 45°26' E 012°13'0 0.0
2016-Jul-04 02:31N 45°26' E 012°13'0 0.0
2016-Jul-04 01:31N 45°26' E 012°13'0 0.0
2016-Jul-04 00:31N 45°26' E 012°13'0 0.0
2016-Jul-03 23:31N 45°26' E 012°13'0 0.0
2016-Jul-03 22:31N 45°26' E 012°13'0 0.0
2016-Jul-03 21:31N 45°26' E 012°13'0 0.0
2016-Jul-03 20:31N 45°26' E 012°13'0 0.0
2016-Jul-03 19:31N 45°26' E 012°13'0 0.0
2016-Jul-03 18:31N 45°26' E 012°13'0 0.0
2016-Jul-03 17:32N 45°26' E 012°13'2 2.2
2016-Jul-03 16:33N 45°25' E 012°16'7 7.3
2016-Jul-03 15:32N 45°20' E 012°23'1 1.2
2016-Jul-03 14:32N 45°20' E 012°25'0 0.0
2016-Jul-03 13:32N 45°20' E 012°25'0 0.0
2016-Jul-03 12:32N 45°20' E 012°25'0 0.0
2016-Jul-03 11:32N 45°20' E 012°25'0 0.0
2016-Jul-03 10:32N 45°20' E 012°25'0 0.0
2016-Jul-03 09:32N 45°20' E 012°25'0 0.0
2016-Jul-03 08:31N 45°20' E 012°25'0 0.0
2016-Jul-03 07:32N 45°20' E 012°25'0 0.1
2016-Jul-03 06:31N 45°20' E 012°25'0 0.1
2016-Jul-03 05:32N 45°20' E 012°25'0 0.0
2016-Jul-03 04:29N 45°20' E 012°25'0 0.0
2016-Jul-03 03:31N 45°20' E 012°25'0 0.1
2016-Jul-03 02:32N 45°20' E 012°25'0 0.0
2016-Jul-03 01:32N 45°20' E 012°25'0 0.1
2016-Jul-03 00:31N 45°20' E 012°25'0 0.0
2016-Jul-02 23:32N 45°20' E 012°25'0 0.0
2016-Jul-02 22:31N 45°20' E 012°25'0 0.0
2016-Jul-02 21:31N 45°20' E 012°25'0 0.0
2016-Jul-02 20:32N 45°20' E 012°25'0 0.0
2016-Jul-02 19:32N 45°20' E 012°25'0 0.0
2016-Jul-02 18:31N 45°20' E 012°25'0 0.0
2016-Jul-02 17:31N 45°20' E 012°25'0 0.0
2016-Jul-02 16:32N 45°20' E 012°25'0 0.0
2016-Jul-02 15:31N 45°20' E 012°25'0 0.0
2016-Jul-02 14:28N 45°20' E 012°25'0 0.0
2016-Jul-02 13:28N 45°20' E 012°25'0 0.0
2016-Jul-02 12:32N 45°20' E 012°25'0 0.0
2016-Jul-02 11:32N 45°20' E 012°25'0 0.0
2016-Jul-02 10:31N 45°20' E 012°25'0 0.0
2016-Jul-02 09:31N 45°20' E 012°25'0 0.0
2016-Jul-02 08:31N 45°20' E 012°25'0 0.0
2016-Jul-02 07:31N 45°20' E 012°25'0 0.0
2016-Jul-02 06:31N 45°20' E 012°25'0 0.0
2016-Jul-02 04:33N 45°20' E 012°25'0 0.0
2016-Jul-02 03:33N 45°20' E 012°25'0 0.0
2016-Jul-02 02:33N 45°20' E 012°25'0 0.2
2016-Jul-02 01:33N 45°20' E 012°25'0 0.0
2016-Jul-02 00:33N 45°20' E 012°25'0 0.1
2016-Jul-01 23:33N 45°20' E 012°25'0 0.1
2016-Jul-01 22:33N 45°20' E 012°25'0 0.0
2016-Jul-01 21:33N 45°20' E 012°25'0 0.0
2016-Jul-01 20:33N 45°20' E 012°25'0 0.0
2016-Jul-01 19:33N 45°20' E 012°25'5 4.9
2016-Jul-01 18:33N 45°17' E 012°31'1313.0
2016-Jul-01 17:33N 45°10' E 012°45'1312.6
2016-Jul-01 16:33N 44°59' E 012°54'1212.5
2016-Jul-01 15:33N 44°47' E 012°47'1212.4
2016-Jul-01 14:33N 44°36' E 012°40'1111.3
2016-Jul-01 13:33N 44°30' E 012°27'7 0.5
2016-Jun-30 23:17N 44°29' E 012°16'3 4.2
2016-Jun-30 22:33N 44°30' E 012°21'1111.0
2016-Jun-30 21:33N 44°30' E 012°36'1312.7
2016-Jun-30 20:33N 44°24' E 012°52'1312.7
2016-Jun-30 19:33N 44°17' E 013°07'1212.4
2016-Jun-30 18:33N 44°13' E 013°23'1312.8
2016-Jun-30 17:33N 44°05' E 013°37'2812.8
2016-Jun-30 15:23N 43°50' E 014°10'2513.5
2016-Jun-30 13:33N 43°35' E 014°36'1413.7
2016-Jun-30 12:34N 43°25' E 014°50'1414.0
2016-Jun-30 11:32N 43°15' E 015°03'332 8.7
2016-Jun-28 21:33N 37°46' E 016°02'1212.4
2016-Jun-28 20:33N 37°48' E 015°47'1111.2
2016-Jun-28 19:34N 37°55' E 015°36'1313.0
2016-Jun-28 18:34N 38°08' E 015°34'1312.6
2016-Jun-28 17:33N 38°20' E 015°38'1413.5
2016-Jun-28 16:33N 38°29' E 015°25'1313.4
2016-Jun-28 15:33N 38°39' E 015°14'  
Track history (hours):
 
Tides and Currents Weather Stations Pressure Air Temp Water Temp Dewpoint Dewpoint Depression Visibility Wind Speed Wind Dir Waves Ship Positions

Stolt Ami

Last reported at 2016-Jul-08 04:32 UTC. Time now 2016-Jul-26 14:14 UTC.
Position N 37°19' E 024°09'.
Warning: this ship's position is 18 days out of date.

Length 143 m; draft 9.1 m.

Type: Ship (hazmat cat B). MMSI: 371392514.

Date/timePositionNaut miles runAvg speedWind from/ knotsBaromVisibWave heightAir tempDewpointWater temp
2016-Jul-08 04:32N 37°19' E 024°09'1312.4
2016-Jul-08 03:31N 37°10' E 023°58'1212.6
2016-Jul-08 02:33N 37°01' E 023°48'1312.8
2016-Jul-08 01:33N 36°51' E 023°38'  
2016-Jul-05 19:22N 43°55' E 013°44'1212.7
2016-Jul-05 18:27N 44°02' E 013°31'1213.0
2016-Jul-05 17:33N 44°09' E 013°18'1212.2
2016-Jul-05 16:34N 44°19' E 013°09'1312.8
2016-Jul-05 15:34N 44°31' E 013°04'1312.9
2016-Jul-05 14:34N 44°44' E 012°58'1313.2
2016-Jul-05 13:34N 44°56' E 012°50'1413.5
2016-Jul-05 12:33N 45°07' E 012°40'1212.0
2016-Jul-05 11:33N 45°16' E 012°29'3 3.3
2016-Jul-05 10:31N 45°19' E 012°27'0 0.0
2016-Jul-05 09:31N 45°19' E 012°27'0 0.0
2016-Jul-05 08:31N 45°19' E 012°27'0 0.0
2016-Jul-05 07:32N 45°19' E 012°27'0 0.0
2016-Jul-05 06:31N 45°19' E 012°27'0 0.0
2016-Jul-05 04:31N 45°19' E 012°27'0 0.0
2016-Jul-05 03:31N 45°19' E 012°27'0 0.0
2016-Jul-05 02:31N 45°19' E 012°27'0 0.0
2016-Jul-05 01:31N 45°19' E 012°27'0 0.0
2016-Jul-05 00:31N 45°19' E 012°27'0 0.0
2016-Jul-04 23:31N 45°19' E 012°27'0 0.0
2016-Jul-04 22:31N 45°19' E 012°27'0 0.1
2016-Jul-04 21:31N 45°19' E 012°27'0 0.0
2016-Jul-04 20:31N 45°19' E 012°27'0 0.0
2016-Jul-04 19:31N 45°19' E 012°27'0 0.0
2016-Jul-04 18:31N 45°19' E 012°27'0 0.0
2016-Jul-04 17:31N 45°19' E 012°27'1 1.2
2016-Jul-04 16:34N 45°19' E 012°25'8 8.0
2016-Jul-04 15:33N 45°23' E 012°16'4 3.7
2016-Jul-04 14:31N 45°26' E 012°13'0 0.0
2016-Jul-04 13:31N 45°26' E 012°13'0 0.0
2016-Jul-04 12:31N 45°26' E 012°13'0 0.0
2016-Jul-04 11:31N 45°26' E 012°13'0 0.0
2016-Jul-04 10:31N 45°26' E 012°13'0 0.0
2016-Jul-04 09:31N 45°26' E 012°13'0 0.0
2016-Jul-04 08:31N 45°26' E 012°13'0 0.0
2016-Jul-04 07:31N 45°26' E 012°13'0 0.0
2016-Jul-04 06:31N 45°26' E 012°13'0 0.0
2016-Jul-04 05:31N 45°26' E 012°13'0 0.0
2016-Jul-04 04:31N 45°26' E 012°13'0 0.0
2016-Jul-04 03:31N 45°26' E 012°13'0 0.0
2016-Jul-04 02:31N 45°26' E 012°13'0 0.0
2016-Jul-04 01:31N 45°26' E 012°13'0 0.0
2016-Jul-04 00:31N 45°26' E 012°13'0 0.0
2016-Jul-03 23:31N 45°26' E 012°13'0 0.0
2016-Jul-03 22:31N 45°26' E 012°13'0 0.0
2016-Jul-03 21:31N 45°26' E 012°13'0 0.0
2016-Jul-03 20:31N 45°26' E 012°13'0 0.0
2016-Jul-03 19:31N 45°26' E 012°13'0 0.0
2016-Jul-03 18:31N 45°26' E 012°13'0 0.0
2016-Jul-03 17:32N 45°26' E 012°13'2 2.2
2016-Jul-03 16:33N 45°25' E 012°16'7 7.3
2016-Jul-03 15:32N 45°20' E 012°23'1 1.2
2016-Jul-03 14:32N 45°20' E 012°25'0 0.0
2016-Jul-03 13:32N 45°20' E 012°25'0 0.0
2016-Jul-03 12:32N 45°20' E 012°25'0 0.0
2016-Jul-03 11:32N 45°20' E 012°25'0 0.0
2016-Jul-03 10:32N 45°20' E 012°25'0 0.0
2016-Jul-03 09:32N 45°20' E 012°25'0 0.0
2016-Jul-03 08:31N 45°20' E 012°25'0 0.0
2016-Jul-03 07:32N 45°20' E 012°25'0 0.1
2016-Jul-03 06:31N 45°20' E 012°25'0 0.1
2016-Jul-03 05:32N 45°20' E 012°25'0 0.0
2016-Jul-03 04:29N 45°20' E 012°25'0 0.0
2016-Jul-03 03:31N 45°20' E 012°25'0 0.1
2016-Jul-03 02:32N 45°20' E 012°25'0 0.0
2016-Jul-03 01:32N 45°20' E 012°25'0 0.1
2016-Jul-03 00:31N 45°20' E 012°25'0 0.0
2016-Jul-02 23:32N 45°20' E 012°25'0 0.0
2016-Jul-02 22:31N 45°20' E 012°25'0 0.0
2016-Jul-02 21:31N 45°20' E 012°25'0 0.0
2016-Jul-02 20:32N 45°20' E 012°25'0 0.0
2016-Jul-02 19:32N 45°20' E 012°25'0 0.0
2016-Jul-02 18:31N 45°20' E 012°25'0 0.0
2016-Jul-02 17:31N 45°20' E 012°25'0 0.0
2016-Jul-02 16:32N 45°20' E 012°25'0 0.0
2016-Jul-02 15:31N 45°20' E 012°25'0 0.0
2016-Jul-02 14:28N 45°20' E 012°25'0 0.0
2016-Jul-02 13:28N 45°20' E 012°25'0 0.0
2016-Jul-02 12:32N 45°20' E 012°25'0 0.0
2016-Jul-02 11:32N 45°20' E 012°25'0 0.0
2016-Jul-02 10:31N 45°20' E 012°25'0 0.0
2016-Jul-02 09:31N 45°20' E 012°25'0 0.0
2016-Jul-02 08:31N 45°20' E 012°25'0 0.0
2016-Jul-02 07:31N 45°20' E 012°25'0 0.0
2016-Jul-02 06:31N 45°20' E 012°25'0 0.0
2016-Jul-02 04:33N 45°20' E 012°25'0 0.0
2016-Jul-02 03:33N 45°20' E 012°25'0 0.0
2016-Jul-02 02:33N 45°20' E 012°25'0 0.2
2016-Jul-02 01:33N 45°20' E 012°25'0 0.0
2016-Jul-02 00:33N 45°20' E 012°25'0 0.1
2016-Jul-01 23:33N 45°20' E 012°25'0 0.1
2016-Jul-01 22:33N 45°20' E 012°25'0 0.0
2016-Jul-01 21:33N 45°20' E 012°25'0 0.0
2016-Jul-01 20:33N 45°20' E 012°25'0 0.0
2016-Jul-01 19:33N 45°20' E 012°25'5 4.9
2016-Jul-01 18:33N 45°17' E 012°31'1313.0
2016-Jul-01 17:33N 45°10' E 012°45'1312.6
2016-Jul-01 16:33N 44°59' E 012°54'1212.5
2016-Jul-01 15:33N 44°47' E 012°47'1212.4
2016-Jul-01 14:33N 44°36' E 012°40'1111.3
2016-Jul-01 13:33N 44°30' E 012°27'7 0.5
2016-Jun-30 23:17N 44°29' E 012°16'3 4.2
2016-Jun-30 22:33N 44°30' E 012°21'1111.0
2016-Jun-30 21:33N 44°30' E 012°36'1312.7
2016-Jun-30 20:33N 44°24' E 012°52'1312.7
2016-Jun-30 19:33N 44°17' E 013°07'1212.4
2016-Jun-30 18:33N 44°13' E 013°23'1312.8
2016-Jun-30 17:33N 44°05' E 013°37'2812.8
2016-Jun-30 15:23N 43°50' E 014°10'2513.5
2016-Jun-30 13:33N 43°35' E 014°36'1413.7
2016-Jun-30 12:34N 43°25' E 014°50'1414.0
2016-Jun-30 11:32N 43°15' E 015°03'332 8.7
2016-Jun-28 21:33N 37°46' E 016°02'1212.4
2016-Jun-28 20:33N 37°48' E 015°47'1111.2
2016-Jun-28 19:34N 37°55' E 015°36'1313.0
2016-Jun-28 18:34N 38°08' E 015°34'1312.6
2016-Jun-28 17:33N 38°20' E 015°38'1413.5
2016-Jun-28 16:33N 38°29' E 015°25'1313.4
2016-Jun-28 15:33N 38°39' E 015°14'  

Dump ship's entire track history